Hovedside
METAR-TAF:

METAR-TAF

Lufthavner :

Sogndal lufthamn. Haukåsen

Sogndal, Norge

breddegrad: 61-09N, lengdegrad: 007-08E, høyde over havet: 49 m

Gjeldene værobservasjon

Denne rapporten ble laget for 52 minutter siden, klokken 13:50 UTC
Vind 5 kt fra Sørvest
Temperatur 17°C
Luftfuktighet 94%
Trykk 1014 hPa
Sikt 10 km eller mer
Få skyer
Spredte skyer i en høyde av 2500 ft, Bygeskyer.
regnbyger i nærheten

METAR: ENSG 181350Z 23005KT 9999 VCSH FEW/// SCT025CB 17/16 Q1014 RMK WIND 3806FT 25013KT

Tid: 16:42 (14:42 UTC)


TAF: fraværende

Værobservasjoner og værvarsel for over 4000 flyplasser (METAR- og TAF-rapporter).

Tilgjengelige stasjoner er representert av de røde og gule prikkene på kartet.

Hold musepekeren over prikken for å se navnet på stasjonen.

Klikk så for å se værobservasjoner og -varsler.

For å forandre kartet kan du klikke på den grønne knappen med svart kryss for å zoome inn, på den grønne knappen med strek for å zoome ut, eller på de grønne pilene for å se tilstøtende kart.


METAR-TAF: